Time;durP1;ratioP1;P1;durP2;ratioP2;P2;SDS_P1;SDS_P2;PMS_P1;PMS_P2;Temp;Humidity;BMP_temperature;BMP_pressure;BME280_temperature;BME280_humidity;BME280_pressure;Samples;Min_cycle;Max_cycle;Signal;HPM_P1;HPM_P2
2024/03/17 00:01:11;;;;;;;;;;;;;;;;;;4971502;28;19983;-74
2024/03/17 00:03:39;;;;;;;;;;;;;;;;;;4970164;28;19929;-74
2024/03/17 00:06:05;;;;;;;;;;;;;;;;;;4957850;28;19981;-72
2024/03/17 00:08:32;;;;;;;;;;;;;;;;;;4964274;28;20385;-72
2024/03/17 00:10:59;;;;;;;;;;;;;;;;;;4969957;28;19930;-73
2024/03/17 00:13:26;;;;;;;;;;;;;;;;;;4967487;28;20405;-73
2024/03/17 00:15:52;;;;;;;;;;;;;;;;;;4955071;28;19976;-72
2024/03/17 00:18:19;;;;;;;;;;;;;;;;;;4967402;28;19937;-72
2024/03/17 00:20:46;;;;;;;;;;;;;;;;;;4968767;28;19934;-73
2024/03/17 00:23:13;;;;;;;;;;;;;;;;;;4968084;28;20031;-73
2024/03/17 00:25:39;;;;;;;;;;;;;;;;;;4968606;28;19962;-73
2024/03/17 00:28:06;;;;;;;;;;;;;;;;;;4968349;28;19934;-72
2024/03/17 00:30:33;;;;;;;;;;;;;;;;;;4968180;28;20007;-72
2024/03/17 00:33:00;;;;;;;;;;;;;;;;;;4964990;28;19931;-72
2024/03/17 00:35:26;;;;;;;;;;;;;;;;;;4958973;28;20115;-72
2024/03/17 00:37:53;;;;;;;;;;;;;;;;;;4965544;28;19937;-73
2024/03/17 00:40:19;;;;;;;;;;;;;;;;;;4967382;28;19930;-72
2024/03/17 00:42:46;;;;;;;;;;;;;;;;;;4956150;28;20016;-72
2024/03/17 00:45:13;;;;;;;;;;;;;;;;;;4968832;28;20029;-72
2024/03/17 00:47:40;;;;;;;;;;;;;;;;;;4968338;28;19930;-72
2024/03/17 00:50:07;;;;;;;;;;;;;;;;;;4963458;28;19941;-72
2024/03/17 00:52:34;;;;;;;;;;;;;;;;;;4961034;28;20011;-72
2024/03/17 00:55:00;;;;;;;;;;;;;;;;;;4962134;28;19934;-72
2024/03/17 00:57:27;;;;;;;;;;;;;;;;;;4958608;28;19976;-72
2024/03/17 00:59:53;;;;;;;;;;;;;;;;;;4962295;28;20282;-72
2024/03/17 01:02:21;;;;;;;;;;;;;;;;;;4965893;28;19930;-73
2024/03/17 01:04:47;;;;;;;;;;;;;;;;;;4962769;28;20017;-73
2024/03/17 01:07:14;;;;;;;;;;;;;;;;;;4965180;28;19953;-73
2024/03/17 01:09:40;;;;;;;;;;;;;;;;;;4966721;28;19930;-73
2024/03/17 01:12:08;;;;;;;;;;;;;;;;;;4966190;28;19937;-73
2024/03/17 01:14:34;;;;;;;;;;;;;;;;;;4958253;28;19934;-72
2024/03/17 01:17:04;;;;;;;;;;;;;;;;;;4959608;28;20031;-73
2024/03/17 01:19:30;;;;;;;;;;;;;;;;;;4959011;28;19930;-73
2024/03/17 01:21:57;;;;;;;;;;;;;;;;;;4963442;28;20024;-73
2024/03/17 01:24:24;;;;;;;;;;;;;;;;;;4958583;28;19934;-72
2024/03/17 01:26:53;;;;;;;;;;;;;;;;;;4962293;28;19930;-73
2024/03/17 01:29:19;;;;;;;;;;;;;;;;;;4957508;28;19941;-74
2024/03/17 01:31:46;;;;;;;;;;;;;;;;;;4958471;28;20373;-73
2024/03/17 01:34:12;;;;;;;;;;;;;;;;;;4962147;28;20037;-73
2024/03/17 01:36:39;;;;;;;;;;;;;;;;;;4966054;28;20404;-73
2024/03/17 01:39:05;;;;;;;;;;;;;;;;;;4965942;28;19977;-73
2024/03/17 01:41:32;;;;;;;;;;;;;;;;;;4961413;28;19952;-74
2024/03/17 01:43:58;;;;;;;;;;;;;;;;;;4958814;28;19934;-74
2024/03/17 01:46:25;;;;;;;;;;;;;;;;;;4960673;28;20015;-75
2024/03/17 01:48:52;;;;;;;;;;;;;;;;;;4961155;28;19933;-74
2024/03/17 01:51:19;;;;;;;;;;;;;;;;;;4963643;28;19930;-73
2024/03/17 01:53:45;;;;;;;;;;;;;;;;;;4958222;28;19930;-73
2024/03/17 01:56:12;;;;;;;;;;;;;;;;;;4957736;28;19930;-73
2024/03/17 01:58:38;;;;;;;;;;;;;;;;;;4965727;28;19931;-73
2024/03/17 02:01:06;;;;;;;;;;;;;;;;;;4958721;28;19930;-73
2024/03/17 02:03:34;;;;;;;;;;;;;;;;;;4957729;28;19930;-73
2024/03/17 02:06:00;;;;;;;;;;;;;;;;;;4956327;28;19930;-73
2024/03/17 02:08:27;;;;;;;;;;;;;;;;;;4963314;28;19938;-74
2024/03/17 02:10:53;;;;;;;;;;;;;;;;;;4968085;28;19938;-74
2024/03/17 02:13:21;;;;;;;;;;;;;;;;;;4959221;28;19930;-74
2024/03/17 02:15:47;;;;;;;;;;;;;;;;;;4963537;28;19962;-74
2024/03/17 02:18:14;;;;;;;;;;;;;;;;;;4964613;28;19938;-74
2024/03/17 02:20:55;;;;;;;;;;;;;;;;;;4968479;28;19930;-73
2024/03/17 02:23:22;;;;;;;;;;;;;;;;;;4964577;28;19930;-75
2024/03/17 02:25:48;;;;;;;;;;;;;;;;;;4961950;28;19981;-74
2024/03/17 02:28:15;;;;;;;;;;;;;;;;;;4959583;28;19930;-74
2024/03/17 02:30:42;;;;;;;;;;;;;;;;;;4960434;28;19984;-74
2024/03/17 02:33:09;;;;;;;;;;;;;;;;;;4961440;28;19937;-74
2024/03/17 02:35:35;;;;;;;;;;;;;;;;;;4965946;28;19976;-73
2024/03/17 02:38:02;;;;;;;;;;;;;;;;;;4960940;28;19931;-74
2024/03/17 02:40:28;;;;;;;;;;;;;;;;;;4962237;28;19964;-73
2024/03/17 02:42:55;;;;;;;;;;;;;;;;;;4964344;28;19937;-74
2024/03/17 02:45:22;;;;;;;;;;;;;;;;;;4965748;28;19934;-76
2024/03/17 02:47:50;;;;;;;;;;;;;;;;;;4969755;28;19930;-75
2024/03/17 02:50:18;;;;;;;;;;;;;;;;;;4961004;28;20019;-75
2024/03/17 02:52:45;;;;;;;;;;;;;;;;;;4960630;28;19934;-75
2024/03/17 02:55:12;;;;;;;;;;;;;;;;;;4959197;28;19973;-74
2024/03/17 02:57:40;;;;;;;;;;;;;;;;;;4962411;28;19931;-73
2024/03/17 03:00:12;;;;;;;;;;;;;;;;;;4968834;28;19934;-73
2024/03/17 03:02:40;;;;;;;;;;;;;;;;;;4964751;28;20360;-73
2024/03/17 03:05:07;;;;;;;;;;;;;;;;;;4969840;28;19930;-73
2024/03/17 03:07:35;;;;;;;;;;;;;;;;;;4965090;28;19969;-73
2024/03/17 03:10:02;;;;;;;;;;;;;;;;;;4963057;28;19973;-73
2024/03/17 03:12:29;;;;;;;;;;;;;;;;;;4959123;28;19931;-74
2024/03/17 03:14:56;;;;;;;;;;;;;;;;;;4963671;28;19942;-75
2024/03/17 03:17:23;;;;;;;;;;;;;;;;;;4965454;28;19930;-74
2024/03/17 03:19:51;;;;;;;;;;;;;;;;;;4967108;28;19930;-74
2024/03/17 03:22:18;;;;;;;;;;;;;;;;;;4969822;28;19980;-74
2024/03/17 03:24:45;;;;;;;;;;;;;;;;;;4958196;28;19938;-74
2024/03/17 03:27:13;;;;;;;;;;;;;;;;;;4956627;28;20398;-73
2024/03/17 03:29:40;;;;;;;;;;;;;;;;;;4962021;28;19930;-74
2024/03/17 03:32:07;;;;;;;;;;;;;;;;;;4967923;28;20450;-74
2024/03/17 03:34:34;;;;;;;;;;;;;;;;;;4965193;28;19936;-73
2024/03/17 03:37:01;;;;;;;;;;;;;;;;;;4961602;28;19930;-74
2024/03/17 03:39:31;;;;;;;;;;;;;;;;;;4955986;28;19983;-74
2024/03/17 03:41:58;;;;;;;;;;;;;;;;;;4962997;28;19930;-73
2024/03/17 03:44:26;;;;;;;;;;;;;;;;;;4964953;28;19930;-73
2024/03/17 03:46:56;;;;;;;;;;;;;;;;;;4962011;28;19934;-74
2024/03/17 03:49:23;;;;;;;;;;;;;;;;;;4967294;28;22476;-73
2024/03/17 03:51:50;;;;;;;;;;;;;;;;;;4959767;28;20021;-73
2024/03/17 03:54:17;;;;;;;;;;;;;;;;;;4959766;28;20408;-73
2024/03/17 03:56:45;;;;;;;;;;;;;;;;;;4963862;28;20366;-73
2024/03/17 03:59:12;;;;;;;;;;;;;;;;;;4965937;28;20465;-73
2024/03/17 04:01:39;;;;;;;;;;;;;;;;;;4960724;28;20381;-74
2024/03/17 04:04:06;;;;;;;;;;;;;;;;;;4965199;28;20324;-74
2024/03/17 04:06:33;;;;;;;;;;;;;;;;;;4969464;28;19991;-75
2024/03/17 04:09:00;;;;;;;;;;;;;;;;;;4969794;28;19969;-74
2024/03/17 04:11:27;;;;;;;;;;;;;;;;;;4969562;28;20405;-74
2024/03/17 04:13:56;;;;;;;;;;;;;;;;;;4968975;28;20002;-75
2024/03/17 04:16:23;;;;;;;;;;;;;;;;;;4963947;28;19941;-74
2024/03/17 04:18:50;;;;;;;;;;;;;;;;;;4964696;28;19937;-74
2024/03/17 04:21:17;;;;;;;;;;;;;;;;;;4967322;28;19934;-73
2024/03/17 04:23:44;;;;;;;;;;;;;;;;;;4955803;28;19937;-75
2024/03/17 04:26:14;;;;;;;;;;;;;;;;;;4960180;28;21400;-74
2024/03/17 04:28:41;;;;;;;;;;;;;;;;;;4959333;28;20392;-74
2024/03/17 04:31:11;;;;;;;;;;;;;;;;;;4962535;28;20048;-75
2024/03/17 04:33:38;;;;;;;;;;;;;;;;;;4965736;28;20667;-72
2024/03/17 04:36:05;;;;;;;;;;;;;;;;;;4967720;28;19931;-74
2024/03/17 04:38:32;;;;;;;;;;;;;;;;;;4962073;28;19930;-74
2024/03/17 04:41:04;;;;;;;;;;;;;;;;;;4966329;28;20587;-74
2024/03/17 04:43:32;;;;;;;;;;;;;;;;;;4960415;28;19973;-74
2024/03/17 04:45:59;;;;;;;;;;;;;;;;;;4966235;28;19926;-74
2024/03/17 04:48:27;;;;;;;;;;;;;;;;;;4965380;28;19930;-73
2024/03/17 04:50:54;;;;;;;;;;;;;;;;;;4963776;28;19930;-74
2024/03/17 04:53:21;;;;;;;;;;;;;;;;;;4966111;28;19937;-75
2024/03/17 04:55:48;;;;;;;;;;;;;;;;;;4962887;28;19935;-74
2024/03/17 04:58:15;;;;;;;;;;;;;;;;;;4963963;28;20400;-75
2024/03/17 05:00:42;;;;;;;;;;;;;;;;;;4965116;28;20023;-73
2024/03/17 05:03:09;;;;;;;;;;;;;;;;;;4962324;28;19976;-74
2024/03/17 05:05:36;;;;;;;;;;;;;;;;;;4961043;28;19979;-75
2024/03/17 05:08:04;;;;;;;;;;;;;;;;;;4966072;28;19934;-73
2024/03/17 05:10:31;;;;;;;;;;;;;;;;;;4959548;28;20025;-73
2024/03/17 05:12:58;;;;;;;;;;;;;;;;;;4962499;28;20027;-74
2024/03/17 05:15:25;;;;;;;;;;;;;;;;;;4958685;28;19930;-75
2024/03/17 05:17:53;;;;;;;;;;;;;;;;;;4950334;28;19984;-75
2024/03/17 05:20:20;;;;;;;;;;;;;;;;;;4959603;28;19930;-74
2024/03/17 05:22:48;;;;;;;;;;;;;;;;;;4959284;28;20033;-74
2024/03/17 05:25:15;;;;;;;;;;;;;;;;;;4962164;28;20306;-74
2024/03/17 05:27:42;;;;;;;;;;;;;;;;;;4965905;28;19931;-74
2024/03/17 05:30:09;;;;;;;;;;;;;;;;;;4957461;28;19966;-74
2024/03/17 05:32:37;;;;;;;;;;;;;;;;;;4963410;28;19930;-76
2024/03/17 05:35:04;;;;;;;;;;;;;;;;;;4965265;28;20004;-74
2024/03/17 05:37:31;;;;;;;;;;;;;;;;;;4962392;28;19937;-75
2024/03/17 05:39:58;;;;;;;;;;;;;;;;;;4958648;28;19937;-74
2024/03/17 05:42:25;;;;;;;;;;;;;;;;;;4964775;28;19980;-74
2024/03/17 05:44:53;;;;;;;;;;;;;;;;;;4956699;28;19931;-74
2024/03/17 05:47:20;;;;;;;;;;;;;;;;;;4964128;28;19930;-74
2024/03/17 05:49:47;;;;;;;;;;;;;;;;;;4968066;28;19930;-73
2024/03/17 05:52:14;;;;;;;;;;;;;;;;;;4965116;28;20443;-74
2024/03/17 05:54:41;;;;;;;;;;;;;;;;;;4965460;28;19930;-74
2024/03/17 05:57:09;;;;;;;;;;;;;;;;;;4959728;28;20464;-74
2024/03/17 05:59:36;;;;;;;;;;;;;;;;;;4959761;28;19930;-73
2024/03/17 06:02:03;;;;;;;;;;;;;;;;;;4963349;28;19977;-74
2024/03/17 06:04:29;;;;;;;;;;;;;;;;;;4961701;28;19937;-75
2024/03/17 06:06:56;;;;;;;;;;;;;;;;;;4961189;28;19930;-74
2024/03/17 06:09:24;;;;;;;;;;;;;;;;;;4962150;28;19930;-74
2024/03/17 06:11:52;;;;;;;;;;;;;;;;;;4962730;28;20319;-74
2024/03/17 06:14:19;;;;;;;;;;;;;;;;;;4964221;28;19934;-75
2024/03/17 06:16:46;;;;;;;;;;;;;;;;;;4962682;28;19987;-73
2024/03/17 06:19:13;;;;;;;;;;;;;;;;;;4965832;28;19931;-74
2024/03/17 06:21:40;;;;;;;;;;;;;;;;;;4966007;28;20364;-74
2024/03/17 06:24:07;;;;;;;;;;;;;;;;;;4971837;28;19976;-73
2024/03/17 06:26:35;;;;;;;;;;;;;;;;;;4973193;28;19937;-74
2024/03/17 06:29:02;;;;;;;;;;;;;;;;;;4971262;28;19934;-74
2024/03/17 06:31:31;;;;;;;;;;;;;;;;;;4970791;28;19930;-75
2024/03/17 06:33:58;;;;;;;;;;;;;;;;;;4971287;28;20393;-74
2024/03/17 06:36:25;;;;;;;;;;;;;;;;;;4967688;28;19930;-75
2024/03/17 06:38:53;;;;;;;;;;;;;;;;;;4971606;28;19976;-75
2024/03/17 06:41:20;;;;;;;;;;;;;;;;;;4967729;28;20025;-75
2024/03/17 06:43:47;;;;;;;;;;;;;;;;;;4961633;28;19934;-75
2024/03/17 06:46:14;;;;;;;;;;;;;;;;;;4963614;28;19992;-75
2024/03/17 06:48:41;;;;;;;;;;;;;;;;;;4966202;28;19930;-75
2024/03/17 06:51:08;;;;;;;;;;;;;;;;;;4967956;28;19930;-75
2024/03/17 06:53:36;;;;;;;;;;;;;;;;;;4967246;28;19930;-76
2024/03/17 06:56:03;;;;;;;;;;;;;;;;;;4987685;28;19934;-76
2024/03/17 06:58:30;;;;;;;;;;;;;;;;;;4970056;28;19931;-76
2024/03/17 07:00:57;;;;;;;;;;;;;;;;;;4965347;28;20431;-75
2024/03/17 07:03:24;;;;;;;;;;;;;;;;;;4970450;28;19969;-74
2024/03/17 07:05:51;;;;;;;;;;;;;;;;;;4960714;28;19973;-76
2024/03/17 07:08:19;;;;;;;;;;;;;;;;;;4965618;28;19938;-74
2024/03/17 07:10:45;;;;;;;;;;;;;;;;;;4969309;28;19930;-75
2024/03/17 07:13:12;;;;;;;;;;;;;;;;;;4963424;28;19930;-75
2024/03/17 07:15:39;;;;;;;;;;;;;;;;;;4964327;28;19964;-75
2024/03/17 07:18:07;;;;;;;;;;;;;;;;;;4971557;28;19933;-76
2024/03/17 07:20:34;;;;;;;;;;;;;;;;;;4968455;28;19975;-76
2024/03/17 07:23:01;;;;;;;;;;;;;;;;;;4965336;28;19953;-74
2024/03/17 07:25:28;;;;;;;;;;;;;;;;;;4969008;28;19941;-75
2024/03/17 07:27:55;;;;;;;;;;;;;;;;;;4958390;28;19981;-81
2024/03/17 07:30:22;;;;;;;;;;;;;;;;;;4970391;28;19930;-80
2024/03/17 07:32:49;;;;;;;;;;;;;;;;;;4967195;28;20365;-81
2024/03/17 07:35:16;;;;;;;;;;;;;;;;;;4964162;28;19970;-78
2024/03/17 07:37:44;;;;;;;;;;;;;;;;;;4962611;28;19937;-81
2024/03/17 07:40:11;;;;;;;;;;;;;;;;;;4969205;28;19930;-80
2024/03/17 07:42:38;;;;;;;;;;;;;;;;;;4966897;28;20025;-74
2024/03/17 07:45:05;;;;;;;;;;;;;;;;;;4967501;28;20017;-75
2024/03/17 07:47:35;;;;;;;;;;;;;;;;;;4965721;28;19977;-77
2024/03/17 07:50:04;;;;;;;;;;;;;;;;;;4953538;28;19930;-72
2024/03/17 07:52:31;;;;;;;;;;;;;;;;;;4967116;28;19930;-71
2024/03/17 07:54:58;;;;;;;;;;;;;;;;;;4967988;28;19984;-73
2024/03/17 07:57:25;;;;;;;;;;;;;;;;;;4967324;28;19930;-71
2024/03/17 07:59:52;;;;;;;;;;;;;;;;;;4968336;28;19930;-73
2024/03/17 08:02:19;;;;;;;;;;;;;;;;;;4962909;28;20773;-71
2024/03/17 08:04:47;;;;;;;;;;;;;;;;;;4967441;28;19930;-71
2024/03/17 08:07:14;;;;;;;;;;;;;;;;;;4966290;28;19937;-72
2024/03/17 08:09:41;;;;;;;;;;;;;;;;;;4963323;28;19969;-72
2024/03/17 08:12:09;;;;;;;;;;;;;;;;;;4960303;28;19934;-73
2024/03/17 08:14:37;;;;;;;;;;;;;;;;;;4967579;28;19930;-72
2024/03/17 08:17:06;;;;;;;;;;;;;;;;;;4965131;28;20356;-72
2024/03/17 08:19:33;;;;;;;;;;;;;;;;;;4965104;28;19937;-72
2024/03/17 08:22:00;;;;;;;;;;;;;;;;;;4965825;28;19974;-72
2024/03/17 08:24:27;;;;;;;;;;;;;;;;;;4965013;28;19934;-73
2024/03/17 08:26:54;;;;;;;;;;;;;;;;;;4961245;28;19933;-71
2024/03/17 08:29:21;;;;;;;;;;;;;;;;;;4966104;28;19934;-72
2024/03/17 08:31:49;;;;;;;;;;;;;;;;;;4963811;28;20291;-71
2024/03/17 08:34:16;;;;;;;;;;;;;;;;;;4963734;28;19959;-72
2024/03/17 08:36:43;;;;;;;;;;;;;;;;;;4966372;28;20464;-72
2024/03/17 08:39:11;;;;;;;;;;;;;;;;;;4964561;28;20034;-74
2024/03/17 08:41:39;;;;;;;;;;;;;;;;;;4963519;28;19930;-73
2024/03/17 08:44:06;;;;;;;;;;;;;;;;;;4962115;28;20434;-72
2024/03/17 08:46:33;;;;;;;;;;;;;;;;;;4965045;28;19930;-71
2024/03/17 08:49:00;;;;;;;;;;;;;;;;;;4964538;28;19930;-71
2024/03/17 08:51:28;;;;;;;;;;;;;;;;;;4963088;28;19996;-72
2024/03/17 08:53:57;;;;;;;;;;;;;;;;;;4959312;28;20375;-72
2024/03/17 08:56:24;;;;;;;;;;;;;;;;;;4963962;28;19937;-73
2024/03/17 08:58:51;;;;;;;;;;;;;;;;;;4965652;28;19930;-74
2024/03/17 09:01:18;;;;;;;;;;;;;;;;;;4966290;28;20025;-73
2024/03/17 09:03:45;;;;;;;;;;;;;;;;;;4960796;28;19976;-73
2024/03/17 09:06:12;;;;;;;;;;;;;;;;;;4962614;28;19926;-72
2024/03/17 09:08:40;;;;;;;;;;;;;;;;;;4964950;28;19934;-71
2024/03/17 09:11:07;;;;;;;;;;;;;;;;;;4966186;28;19930;-74
2024/03/17 09:13:35;;;;;;;;;;;;;;;;;;4966027;28;19936;-73
2024/03/17 09:16:02;;;;;;;;;;;;;;;;;;4967164;28;19930;-73
2024/03/17 09:18:29;;;;;;;;;;;;;;;;;;4967662;28;19930;-73
2024/03/17 09:20:56;;;;;;;;;;;;;;;;;;4968075;28;20012;-72
2024/03/17 09:23:24;;;;;;;;;;;;;;;;;;4972176;28;20245;-71
2024/03/17 09:25:51;;;;;;;;;;;;;;;;;;4972504;28;19930;-70
2024/03/17 09:28:18;;;;;;;;;;;;;;;;;;4969343;28;19934;-72
2024/03/17 09:30:45;;;;;;;;;;;;;;;;;;4972274;28;20413;-72
2024/03/17 09:33:12;;;;;;;;;;;;;;;;;;4973144;28;19980;-72
2024/03/17 09:35:39;;;;;;;;;;;;;;;;;;4975524;28;19977;-73
2024/03/17 09:38:06;;;;;;;;;;;;;;;;;;4976844;28;19966;-72
2024/03/17 09:40:34;;;;;;;;;;;;;;;;;;4974885;28;20013;-71
2024/03/17 09:43:01;;;;;;;;;;;;;;;;;;4969148;28;20142;-72
2024/03/17 09:45:29;;;;;;;;;;;;;;;;;;4965975;28;19934;-72
2024/03/17 09:47:56;;;;;;;;;;;;;;;;;;4973045;28;19976;-72
2024/03/17 09:50:24;;;;;;;;;;;;;;;;;;4973730;28;20029;-73
2024/03/17 09:52:51;;;;;;;;;;;;;;;;;;4970885;28;19941;-72
2024/03/17 09:55:18;;;;;;;;;;;;;;;;;;4973874;28;19986;-72
2024/03/17 09:57:46;;;;;;;;;;;;;;;;;;4974150;28;20011;-72
2024/03/17 10:00:13;;;;;;;;;;;;;;;;;;4973476;28;19930;-72
2024/03/17 10:02:41;;;;;;;;;;;;;;;;;;4972209;28;20317;-72
2024/03/17 10:05:09;;;;;;;;;;;;;;;;;;4973725;28;19937;-72
2024/03/17 10:07:36;;;;;;;;;;;;;;;;;;4973159;28;19926;-72
2024/03/17 10:10:03;;;;;;;;;;;;;;;;;;4972695;28;19930;-72
2024/03/17 10:12:31;;;;;;;;;;;;;;;;;;4972316;28;19960;-71
2024/03/17 10:14:58;;;;;;;;;;;;;;;;;;4973570;28;20447;-72
2024/03/17 10:17:25;;;;;;;;;;;;;;;;;;4969686;28;20348;-72
2024/03/17 10:19:53;;;;;;;;;;;;;;;;;;4973672;28;19937;-71
2024/03/17 10:22:21;;;;;;;;;;;;;;;;;;4972829;28;20024;-73
2024/03/17 10:24:48;;;;;;;;;;;;;;;;;;4970578;28;20024;-73
2024/03/17 10:27:15;;;;;;;;;;;;;;;;;;4970992;28;19941;-71
2024/03/17 10:29:42;;;;;;;;;;;;;;;;;;4974449;28;19928;-72
2024/03/17 10:32:12;;;;;;;;;;;;;;;;;;4972213;28;19992;-72
2024/03/17 10:34:39;;;;;;;;;;;;;;;;;;4967952;28;19934;-73
2024/03/17 10:37:07;;;;;;;;;;;;;;;;;;4967370;28;20043;-73
2024/03/17 10:39:34;;;;;;;;;;;;;;;;;;4965536;28;19934;-73
2024/03/17 10:42:01;;;;;;;;;;;;;;;;;;4967808;28;20069;-72
2024/03/17 10:44:28;;;;;;;;;;;;;;;;;;4966298;28;19976;-73
2024/03/17 10:46:56;;;;;;;;;;;;;;;;;;4964707;28;19930;-73
2024/03/17 10:49:23;;;;;;;;;;;;;;;;;;4964578;28;20393;-71
2024/03/17 10:51:51;;;;;;;;;;;;;;;;;;4965991;28;19930;-74
2024/03/17 10:54:18;;;;;;;;;;;;;;;;;;4969442;28;19934;-72
2024/03/17 10:56:46;;;;;;;;;;;;;;;;;;4966822;28;19969;-72
2024/03/17 10:59:15;;;;;;;;;;;;;;;;;;4964220;28;19934;-72
2024/03/17 11:01:42;;;;;;;;;;;;;;;;;;4968380;28;19941;-73
2024/03/17 11:04:09;;;;;;;;;;;;;;;;;;4966553;28;19969;-72
2024/03/17 11:06:37;;;;;;;;;;;;;;;;;;4969625;28;19930;-72
2024/03/17 11:09:04;;;;;;;;;;;;;;;;;;4965217;28;19938;-73
2024/03/17 11:11:32;;;;;;;;;;;;;;;;;;4968263;28;20587;-73
2024/03/17 11:13:59;;;;;;;;;;;;;;;;;;4965522;28;20290;-72
2024/03/17 11:16:26;;;;;;;;;;;;;;;;;;4968408;28;19964;-72
2024/03/17 11:18:54;;;;;;;;;;;;;;;;;;4967239;28;19930;-72
2024/03/17 11:21:21;;;;;;;;;;;;;;;;;;4968681;28;19957;-71
2024/03/17 11:23:49;;;;;;;;;;;;;;;;;;4968374;28;20297;-73
2024/03/17 11:26:16;;;;;;;;;;;;;;;;;;4967198;28;19960;-72
2024/03/17 11:28:42;;;;;;;;;;;;;;;;;;4967806;28;19981;-73
2024/03/17 11:31:10;;;;;;;;;;;;;;;;;;4968743;28;19958;-74
2024/03/17 11:33:37;;;;;;;;;;;;;;;;;;4968020;28;19930;-72
2024/03/17 11:36:04;;;;;;;;;;;;;;;;;;4968308;28;19980;-72
2024/03/17 11:38:30;;;;;;;;;;;;;;;;;;4965518;28;20240;-72
2024/03/17 11:40:57;;;;;;;;;;;;;;;;;;4968429;28;19937;-72
2024/03/17 11:43:24;;;;;;;;;;;;;;;;;;4967455;28;19965;-73
2024/03/17 11:45:50;;;;;;;;;;;;;;;;;;4965697;28;19942;-72
2024/03/17 11:48:17;;;;;;;;;;;;;;;;;;4968090;28;20379;-73
2024/03/17 11:50:43;;;;;;;;;;;;;;;;;;4968629;28;20385;-73
2024/03/17 11:53:10;;;;;;;;;;;;;;;;;;4968421;28;19937;-72
2024/03/17 11:55:36;;;;;;;;;;;;;;;;;;4968610;28;19930;-73
2024/03/17 11:58:03;;;;;;;;;;;;;;;;;;4967965;28;20063;-71
2024/03/17 12:00:30;;;;;;;;;;;;;;;;;;4957601;28;19930;-73
2024/03/17 12:02:59;;;;;;;;;;;;;;;;;;4967659;28;19930;-72
2024/03/17 12:05:25;;;;;;;;;;;;;;;;;;4968609;28;19937;-72
2024/03/17 12:07:54;;;;;;;;;;;;;;;;;;4968192;28;20404;-73
2024/03/17 12:10:20;;;;;;;;;;;;;;;;;;4960852;28;19941;-72
2024/03/17 12:12:47;;;;;;;;;;;;;;;;;;4966286;28;20004;-72
2024/03/17 12:15:13;;;;;;;;;;;;;;;;;;4968362;28;20431;-72
2024/03/17 12:17:40;;;;;;;;;;;;;;;;;;4966655;28;19930;-71
2024/03/17 12:20:11;;;;;;;;;;;;;;;;;;4950476;28;20467;-72
2024/03/17 12:22:41;;;;;;;;;;;;;;;;;;4966755;28;20021;-72
2024/03/17 12:25:07;;;;;;;;;;;;;;;;;;5003718;28;20011;-72
2024/03/17 12:27:34;;;;;;;;;;;;;;;;;;4980260;28;19972;-72
2024/03/17 12:30:01;;;;;;;;;;;;;;;;;;4968508;28;19934;-72
2024/03/17 12:32:28;;;;;;;;;;;;;;;;;;4970982;28;19930;-73
2024/03/17 12:34:54;;;;;;;;;;;;;;;;;;4967717;28;20044;-73
2024/03/17 12:37:21;;;;;;;;;;;;;;;;;;4969073;28;19934;-73
2024/03/17 12:39:47;;;;;;;;;;;;;;;;;;4966589;28;19934;-72
2024/03/17 12:42:14;;;;;;;;;;;;;;;;;;4969476;28;19944;-72
2024/03/17 12:44:42;;;;;;;;;;;;;;;;;;4966462;28;19942;-72
2024/03/17 12:47:09;;;;;;;;;;;;;;;;;;4963940;28;19930;-72
2024/03/17 12:49:35;;;;;;;;;;;;;;;;;;4966182;28;19929;-73
2024/03/17 12:52:03;;;;;;;;;;;;;;;;;;4966949;28;19934;-72
2024/03/17 12:54:29;;;;;;;;;;;;;;;;;;4967308;28;19930;-73
2024/03/17 13:02:27;;;;;;;;;;;;;;;;;;4968018;28;19986;-73
2024/03/17 13:04:54;;;;;;;;;;;;;;;;;;4964590;28;19930;-72
2024/03/17 13:07:22;;;;;;;;;;;;;;;;;;4964175;28;19980;-72
2024/03/17 13:09:49;;;;;;;;;;;;;;;;;;4966385;28;19977;-73
2024/03/17 13:12:16;;;;;;;;;;;;;;;;;;4977273;28;19983;-72
2024/03/17 13:14:43;;;;;;;;;;;;;;;;;;4956731;28;19936;-73
2024/03/17 13:17:10;;;;;;;;;;;;;;;;;;4962190;28;19977;-73
2024/03/17 13:19:38;;;;;;;;;;;;;;;;;;4961100;28;19973;-73
2024/03/17 13:22:06;;;;;;;;;;;;;;;;;;4967802;28;19998;-73
2024/03/17 13:24:33;;;;;;;;;;;;;;;;;;4959294;28;19930;-72
2024/03/17 13:27:05;;;;;;;;;;;;;;;;;;4967220;28;19930;-73
2024/03/17 13:29:33;;;;;;;;;;;;;;;;;;4965538;28;19934;-73
2024/03/17 13:32:00;;;;;;;;;;;;;;;;;;4966877;28;19934;-74
2024/03/17 13:34:27;;;;;;;;;;;;;;;;;;4965704;28;20459;-72
2024/03/17 13:36:54;;;;;;;;;;;;;;;;;;4959174;28;19930;-73
2024/03/17 13:39:21;;;;;;;;;;;;;;;;;;4958903;28;19934;-73
2024/03/17 13:41:51;;;;;;;;;;;;;;;;;;4966660;28;19931;-73
2024/03/17 13:44:18;;;;;;;;;;;;;;;;;;4966729;28;20020;-73
2024/03/17 13:46:45;;;;;;;;;;;;;;;;;;4968914;28;20994;-72
2024/03/17 13:49:12;;;;;;;;;;;;;;;;;;4967486;28;19991;-72
2024/03/17 13:51:39;;;;;;;;;;;;;;;;;;4966317;28;20286;-72
2024/03/17 13:54:06;;;;;;;;;;;;;;;;;;4960906;28;20474;-72
2024/03/17 13:56:33;;;;;;;;;;;;;;;;;;4964942;28;19977;-72
2024/03/17 13:59:00;;;;;;;;;;;;;;;;;;4963416;28;20031;-72
2024/03/17 14:01:27;;;;;;;;;;;;;;;;;;4964354;28;19930;-74
2024/03/17 14:03:54;;;;;;;;;;;;;;;;;;4965317;28;19931;-72
2024/03/17 14:06:21;;;;;;;;;;;;;;;;;;4959966;28;20019;-73
2024/03/17 14:08:47;;;;;;;;;;;;;;;;;;4956353;28;19980;-73
2024/03/17 14:11:14;;;;;;;;;;;;;;;;;;4954859;28;19969;-73
2024/03/17 14:13:41;;;;;;;;;;;;;;;;;;4961299;28;20347;-73
2024/03/17 14:16:09;;;;;;;;;;;;;;;;;;4962775;28;19958;-73
2024/03/17 14:18:36;;;;;;;;;;;;;;;;;;4965483;28;19930;-74
2024/03/17 14:21:03;;;;;;;;;;;;;;;;;;4965973;28;19930;-72
2024/03/17 14:23:31;;;;;;;;;;;;;;;;;;4967810;28;19930;-73
2024/03/17 14:25:58;;;;;;;;;;;;;;;;;;4970035;28;19934;-72
2024/03/17 14:28:25;;;;;;;;;;;;;;;;;;4964127;28;19930;-73
2024/03/17 14:30:52;;;;;;;;;;;;;;;;;;4962053;28;19991;-73
2024/03/17 14:33:19;;;;;;;;;;;;;;;;;;4968570;28;19934;-75
2024/03/17 14:35:46;;;;;;;;;;;;;;;;;;4968822;28;20389;-73
2024/03/17 14:38:14;;;;;;;;;;;;;;;;;;4970434;28;20031;-72
2024/03/17 14:40:41;;;;;;;;;;;;;;;;;;4969734;28;20020;-74
2024/03/17 14:43:08;;;;;;;;;;;;;;;;;;4967547;28;20466;-74
2024/03/17 14:45:35;;;;;;;;;;;;;;;;;;4972935;28;20392;-73
2024/03/17 14:48:02;;;;;;;;;;;;;;;;;;4973623;28;19942;-72
2024/03/17 14:50:30;;;;;;;;;;;;;;;;;;4968725;28;19933;-73
2024/03/17 14:52:58;;;;;;;;;;;;;;;;;;4968934;28;19983;-72
2024/03/17 14:55:25;;;;;;;;;;;;;;;;;;4968614;28;19976;-71
2024/03/17 14:57:52;;;;;;;;;;;;;;;;;;4968828;28;20355;-73
2024/03/17 15:00:19;;;;;;;;;;;;;;;;;;4969047;28;20018;-74
2024/03/17 15:02:47;;;;;;;;;;;;;;;;;;4970997;28;19930;-73
2024/03/17 15:05:14;;;;;;;;;;;;;;;;;;4968102;28;20031;-72
2024/03/17 15:07:41;;;;;;;;;;;;;;;;;;4968909;28;20020;-73
2024/03/17 15:10:09;;;;;;;;;;;;;;;;;;4969358;28;20313;-72
2024/03/17 15:12:36;;;;;;;;;;;;;;;;;;4995856;28;19934;-72
2024/03/17 15:15:03;;;;;;;;;;;;;;;;;;4968723;28;20455;-73
2024/03/17 15:17:30;;;;;;;;;;;;;;;;;;4968106;28;20042;-73
2024/03/17 15:19:57;;;;;;;;;;;;;;;;;;4983584;28;20385;-73
2024/03/17 15:22:24;;;;;;;;;;;;;;;;;;4986918;28;20423;-73
2024/03/17 15:24:51;;;;;;;;;;;;;;;;;;4958387;28;19962;-73
2024/03/17 15:27:18;;;;;;;;;;;;;;;;;;4956920;28;20003;-72
2024/03/17 15:29:46;;;;;;;;;;;;;;;;;;4967457;28;19934;-72
2024/03/17 15:32:13;;;;;;;;;;;;;;;;;;4963617;28;19941;-73
2024/03/17 15:34:40;;;;;;;;;;;;;;;;;;4966231;28;19969;-72
2024/03/17 15:37:08;;;;;;;;;;;;;;;;;;4963975;28;19953;-73
2024/03/17 15:39:35;;;;;;;;;;;;;;;;;;4968742;28;19930;-73
2024/03/17 15:42:02;;;;;;;;;;;;;;;;;;4962082;28;19994;-72
2024/03/17 15:44:29;;;;;;;;;;;;;;;;;;4965279;28;19938;-72
2024/03/17 15:46:56;;;;;;;;;;;;;;;;;;4965897;28;19985;-72
2024/03/17 15:49:24;;;;;;;;;;;;;;;;;;4960164;28;20018;-73
2024/03/17 15:51:51;;;;;;;;;;;;;;;;;;4967835;28;19930;-73
2024/03/17 15:54:18;;;;;;;;;;;;;;;;;;4962059;28;19980;-73
2024/03/17 15:56:45;;;;;;;;;;;;;;;;;;4967045;28;19969;-73
2024/03/17 15:59:12;;;;;;;;;;;;;;;;;;4968078;28;20555;-72
2024/03/17 16:01:39;;;;;;;;;;;;;;;;;;4954152;28;19970;-73
2024/03/17 16:04:06;;;;;;;;;;;;;;;;;;4963321;28;19934;-73
2024/03/17 16:06:34;;;;;;;;;;;;;;;;;;4965545;28;19974;-73
2024/03/17 16:09:01;;;;;;;;;;;;;;;;;;4973610;28;19930;-72
2024/03/17 16:11:28;;;;;;;;;;;;;;;;;;4968454;28;19930;-71
2024/03/17 16:13:55;;;;;;;;;;;;;;;;;;4965425;28;19930;-72
2024/03/17 16:16:25;;;;;;;;;;;;;;;;;;4950398;28;20028;-73
2024/03/17 16:18:52;;;;;;;;;;;;;;;;;;4960174;28;20025;-72
2024/03/17 16:21:19;;;;;;;;;;;;;;;;;;4964341;28;19976;-72
2024/03/17 16:23:46;;;;;;;;;;;;;;;;;;4961416;28;19984;-72
2024/03/17 16:26:13;;;;;;;;;;;;;;;;;;4965870;28;20371;-72
2024/03/17 16:28:41;;;;;;;;;;;;;;;;;;4966287;28;20373;-72
2024/03/17 16:31:08;;;;;;;;;;;;;;;;;;4955584;28;19974;-72
2024/03/17 16:33:35;;;;;;;;;;;;;;;;;;4965941;28;19930;-72
2024/03/17 16:36:04;;;;;;;;;;;;;;;;;;4963048;28;19941;-69
2024/03/17 16:38:32;;;;;;;;;;;;;;;;;;4971291;28;19984;-71
2024/03/17 16:41:01;;;;;;;;;;;;;;;;;;4962535;28;19937;-71
2024/03/17 16:43:28;;;;;;;;;;;;;;;;;;4961467;28;20362;-72
2024/03/17 16:45:55;;;;;;;;;;;;;;;;;;4962708;28;20447;-73
2024/03/17 16:48:22;;;;;;;;;;;;;;;;;;4962556;28;19930;-72
2024/03/17 16:50:49;;;;;;;;;;;;;;;;;;4956758;28;20033;-74